Time;durP1;ratioP1;P1;durP2;ratioP2;P2;SDS_P1;SDS_P2;PMS_P1;PMS_P2;Temp;Humidity;BMP_temperature;BMP_pressure;BME280_temperature;BME280_humidity;BME280_pressure;Samples;Min_cycle;Max_cycle;Signal;HPM_P1;HPM_P2
2022/12/04 00:03:36;;;;;;;21.77;13.40;;;;;;;-145.68;100.00;63218.00;10457077;28;20688;-75
2022/12/04 00:08:37;;;;;;;24.93;14.00;;;;;;;-145.68;100.00;63218.00;10456435;28;20199;-75
2022/12/04 00:13:38;;;;;;;23.00;14.50;;;;;;;-145.68;100.00;63218.00;10455510;28;20653;-76
2022/12/04 00:18:38;;;;;;;24.73;14.10;;;;;;;-145.68;100.00;63218.00;10438537;28;20192;-75
2022/12/04 00:23:40;;;;;;;24.60;13.57;;;;;;;-145.68;100.00;63218.00;10455046;28;20715;-75
2022/12/04 00:28:41;;;;;;;20.53;13.23;;;;;;;-145.68;100.00;63218.00;10455479;28;20196;-75
2022/12/04 00:33:41;;;;;;;26.93;14.53;;;;;;;-145.68;100.00;63218.00;10455508;28;20234;-75
2022/12/04 00:38:42;;;;;;;24.30;13.97;;;;;;;-145.68;100.00;63218.00;10437268;28;20242;-76
2022/12/04 00:43:44;;;;;;;21.60;13.27;;;;;;;-145.68;100.00;63218.00;10454962;28;20318;-75
2022/12/04 00:48:45;;;;;;;27.80;14.20;;;;;;;-145.68;100.00;63218.00;10454552;28;20249;-76
2022/12/04 00:53:46;;;;;;;23.77;13.73;;;;;;;-145.68;100.00;63218.00;10452753;28;20664;-75
2022/12/04 00:58:46;;;;;;;16.87;10.23;;;;;;;-145.68;100.00;63218.00;10436764;28;20660;-75
2022/12/04 01:03:48;;;;;;;17.53;10.97;;;;;;;-145.68;100.00;63218.00;10453550;28;20223;-75
2022/12/04 01:08:49;;;;;;;20.97;11.93;;;;;;;-145.68;100.00;63218.00;10454754;28;20561;-75
2022/12/04 01:13:49;;;;;;;17.40;11.60;;;;;;;-145.68;100.00;63218.00;10453743;28;20237;-75
2022/12/04 01:18:50;;;;;;;17.90;11.10;;;;;;;-145.68;100.00;63218.00;10435927;28;20651;-75
2022/12/04 01:23:50;;;;;;;20.43;12.67;;;;;;;-145.68;100.00;63218.00;10452819;28;20569;-75
2022/12/04 01:28:51;;;;;;;16.03;10.43;;;;;;;-145.68;100.00;63218.00;10453944;28;20192;-76
2022/12/04 01:33:51;;;;;;;18.43;11.57;;;;;;;-145.68;100.00;63218.00;10452921;28;20789;-76
2022/12/04 01:38:52;;;;;;;17.67;11.90;;;;;;;-145.68;100.00;63218.00;10452582;28;20615;-75
2022/12/04 01:44:21;;;;;;;17.07;10.57;;;;;;;-145.68;100.00;63218.00;10451533;28;20219;-76
2022/12/04 01:49:44;;;;;;;17.03;10.50;;;;;;;-145.68;100.00;63218.00;10452168;28;20273;-75
2022/12/04 01:54:51;;;;;;;22.10;12.87;;;;;;;-145.68;100.00;63218.00;10444805;28;20203;-75
2022/12/04 02:00:10;;;;;;;22.87;12.50;;;;;;;-145.68;100.00;63218.00;10450080;28;20645;-75
2022/12/04 02:05:17;;;;;;;22.87;13.43;;;;;;;-145.68;100.00;63218.00;10450548;28;20702;-75
2022/12/04 02:10:38;;;;;;;22.50;14.07;;;;;;;-145.68;100.00;63218.00;10432804;28;20605;-74
2022/12/04 02:16:42;;;;;;;27.20;13.37;;;;;;;-145.68;100.00;63218.00;10451805;28;20199;-74
2022/12/04 02:22:03;;;;;;;24.37;13.90;;;;;;;-145.68;100.00;63218.00;10452181;28;20228;-76
2022/12/04 02:27:57;;;;;;;30.67;16.83;;;;;;;-145.68;100.00;63218.00;10432120;28;20232;-75
2022/12/04 02:39:17;;;;;;;28.20;15.53;;;;;;;-145.68;100.00;63218.00;10328975;28;20248;-76
2022/12/04 02:44:29;;;;;;;29.60;15.87;;;;;;;-145.68;100.00;63218.00;10432269;28;20277;-76
2022/12/04 02:49:34;;;;;;;32.40;16.77;;;;;;;-145.68;100.00;63218.00;10432333;28;20187;-76
2022/12/04 02:54:38;;;;;;;29.87;16.63;;;;;;;-145.68;100.00;63218.00;10431385;28;20192;-75
2022/12/04 02:59:41;;;;;;;31.70;17.00;;;;;;;-145.68;100.00;63218.00;10431740;28;20219;-75
2022/12/04 03:04:44;;;;;;;33.00;17.23;;;;;;;-145.68;100.00;63218.00;10415482;28;20226;-75
2022/12/04 03:09:57;;;;;;;32.13;17.80;;;;;;;-145.68;100.00;63218.00;10431799;28;20191;-75
2022/12/04 03:15:04;;;;;;;28.17;15.53;;;;;;;-145.68;100.00;63218.00;10431103;28;20196;-75
2022/12/04 03:20:08;;;;;;;20.80;12.33;;;;;;;-145.68;100.00;63218.00;10448774;28;20630;-75
2022/12/04 03:25:09;;;;;;;17.43;10.77;;;;;;;-145.68;100.00;63218.00;10431339;28;20323;-75
2022/12/04 03:30:15;;;;;;;18.70;11.67;;;;;;;-145.68;100.00;63218.00;10430857;28;20184;-75
2022/12/04 03:35:23;;;;;;;22.70;11.43;;;;;;;-145.68;100.00;63218.00;10431149;28;20626;-76
2022/12/04 03:40:34;;;;;;;14.70;9.73;;;;;;;-145.68;100.00;63218.00;10430989;28;20232;-76
2022/12/04 03:45:45;;;;;;;17.50;11.37;;;;;;;-145.68;100.00;63218.00;10448368;28;20195;-75
2022/12/04 03:50:51;;;;;;;23.63;14.07;;;;;;;-145.68;100.00;63218.00;10429856;28;20218;-76
2022/12/04 03:56:01;;;;;;;19.70;12.70;;;;;;;-145.68;100.00;63218.00;10448376;28;20652;-75
2022/12/04 04:01:02;;;;;;;21.03;11.93;;;;;;;-145.68;100.00;63218.00;10430392;28;20340;-75
2022/12/04 04:06:09;;;;;;;20.97;12.57;;;;;;;-145.68;100.00;63218.00;10442567;28;20200;-76
2022/12/04 04:11:13;;;;;;;22.23;13.00;;;;;;;-145.68;100.00;63218.00;10422749;28;20199;-75
2022/12/04 04:26:57;;;;;;;22.73;13.70;;;;;;;-145.68;100.00;63218.00;10424778;28;20244;-76
2022/12/04 04:32:13;;;;;;;19.77;12.80;;;;;;;-145.68;100.00;63218.00;10430167;28;20188;-76
2022/12/04 04:37:33;;;;;;;23.37;12.37;;;;;;;-145.68;100.00;63218.00;10448274;28;20686;-76
2022/12/04 04:42:41;;;;;;;24.13;12.70;;;;;;;-145.68;100.00;63218.00;10430031;28;20224;-76
2022/12/04 04:47:46;;;;;;;26.50;14.47;;;;;;;-145.68;100.00;63218.00;10413214;28;20197;-75
2022/12/04 04:52:50;;;;;;;21.73;13.63;;;;;;;-145.68;100.00;63218.00;10429463;28;20192;-76
2022/12/04 04:57:50;;;;;;;23.33;13.07;;;;;;;-145.68;100.00;63218.00;10428871;28;20208;-76
2022/12/04 05:02:50;;;;;;;21.40;13.10;;;;;;;-145.68;100.00;63218.00;10450966;28;20227;-76
2022/12/04 05:07:51;;;;;;;24.50;13.27;;;;;;;-145.68;100.00;63218.00;10454272;28;20233;-76
2022/12/04 05:12:51;;;;;;;33.87;14.93;;;;;;;-145.68;100.00;63218.00;10452450;28;20210;-76
2022/12/04 05:17:51;;;;;;;26.67;14.00;;;;;;;-145.68;100.00;63218.00;10435101;28;20668;-76
2022/12/04 05:22:52;;;;;;;31.30;16.03;;;;;;;-145.68;100.00;63218.00;10452763;28;20220;-76
2022/12/04 05:27:52;;;;;;;30.70;16.23;;;;;;;-145.68;100.00;63218.00;10434812;28;20266;-74
2022/12/04 05:32:53;;;;;;;30.30;16.87;;;;;;;-145.68;100.00;63218.00;10435735;28;20565;-76
2022/12/04 05:37:53;;;;;;;29.97;16.70;;;;;;;-145.68;100.00;63218.00;10453490;28;20234;-76
2022/12/04 05:42:53;;;;;;;32.23;15.90;;;;;;;-145.68;100.00;63218.00;10452336;28;20216;-75
2022/12/04 05:47:54;;;;;;;31.67;16.03;;;;;;;-145.68;100.00;63218.00;10434865;28;20640;-75
2022/12/04 05:52:54;;;;;;;33.03;17.33;;;;;;;-145.68;100.00;63218.00;10452459;28;20567;-76
2022/12/04 05:57:55;;;;;;;24.07;12.60;;;;;;;-145.68;100.00;63218.00;10452688;28;20253;-75
2022/12/04 06:02:55;;;;;;;31.10;17.03;;;;;;;-145.68;100.00;63218.00;10452393;28;20219;-75
2022/12/04 06:07:55;;;;;;;31.83;17.47;;;;;;;-145.68;100.00;63218.00;10451403;28;20195;-75
2022/12/04 06:12:56;;;;;;;34.73;16.83;;;;;;;-145.68;100.00;63218.00;10452308;28;20553;-75
2022/12/04 06:17:57;;;;;;;32.93;17.67;;;;;;;-145.68;100.00;63218.00;10451453;28;20203;-75
2022/12/04 06:22:57;;;;;;;33.00;16.97;;;;;;;-145.68;100.00;63218.00;10451622;28;20716;-75
2022/12/04 06:27:58;;;;;;;29.03;15.43;;;;;;;-145.68;100.00;63218.00;10451268;28;20297;-75
2022/12/04 06:32:58;;;;;;;23.53;14.07;;;;;;;-145.68;100.00;63218.00;10433398;28;20184;-75
2022/12/04 06:37:58;;;;;;;26.40;14.97;;;;;;;-145.68;100.00;63218.00;10450450;28;20219;-75
2022/12/04 06:42:59;;;;;;;26.60;17.43;;;;;;;-145.68;100.00;63218.00;10450539;28;20623;-76
2022/12/04 06:47:59;;;;;;;29.77;14.97;;;;;;;-145.68;100.00;63218.00;10450118;28;20196;-76
2022/12/04 06:52:59;;;;;;;24.57;13.67;;;;;;;-145.68;100.00;63218.00;10429669;28;20196;-75
2022/12/04 06:58:00;;;;;;;22.00;13.43;;;;;;;-145.68;100.00;63218.00;10449981;28;20187;-75
2022/12/04 07:03:00;;;;;;;25.03;15.13;;;;;;;-145.68;100.00;63218.00;10432266;28;20730;-76
2022/12/04 07:08:00;;;;;;;24.67;13.87;;;;;;;-145.68;100.00;63218.00;10431906;28;20565;-75
2022/12/04 07:13:02;;;;;;;18.27;11.60;;;;;;;-145.68;100.00;63218.00;10448079;28;20262;-76
2022/12/04 07:18:03;;;;;;;20.83;12.80;;;;;;;-145.68;100.00;63218.00;10448743;28;20209;-75
2022/12/04 07:23:03;;;;;;;18.73;11.27;;;;;;;-145.68;100.00;63218.00;10415285;28;20219;-76
2022/12/04 07:28:04;;;;;;;16.83;7.93;;;;;;;-145.68;100.00;63218.00;10448996;28;20196;-76
2022/12/04 07:33:04;;;;;;;18.87;11.67;;;;;;;-145.68;100.00;63218.00;10431762;28;20232;-75
2022/12/04 07:38:05;;;;;;;20.93;12.40;;;;;;;-145.68;100.00;63218.00;10448659;28;20261;-76
2022/12/04 07:43:05;;;;;;;23.40;13.07;;;;;;;-145.68;100.00;63218.00;10440211;28;20562;-75
2022/12/04 07:48:05;;;;;;;20.30;12.80;;;;;;;-145.68;100.00;63218.00;10428787;28;20201;-75
2022/12/04 07:53:06;;;;;;;23.13;13.40;;;;;;;-145.68;100.00;63218.00;10449853;28;20203;-75
2022/12/04 07:58:06;;;;;;;24.83;13.93;;;;;;;-145.68;100.00;63218.00;10450103;28;20265;-75
2022/12/04 08:03:07;;;;;;;23.83;12.83;;;;;;;-145.68;100.00;63218.00;10450930;28;20215;-76
2022/12/04 08:08:07;;;;;;;28.00;15.27;;;;;;;-145.68;100.00;63218.00;10440206;28;20192;-75
2022/12/04 08:13:07;;;;;;;21.20;12.57;;;;;;;-145.68;100.00;63218.00;10440561;28;20183;-76
2022/12/04 08:18:08;;;;;;;21.93;13.57;;;;;;;-145.68;100.00;63218.00;10457195;28;20726;-77
2022/12/04 08:23:08;;;;;;;21.80;13.83;;;;;;;-145.68;100.00;63218.00;10455823;28;20397;-76
2022/12/04 08:28:09;;;;;;;20.73;13.33;;;;;;;-145.68;100.00;63218.00;10456562;28;20196;-76
2022/12/04 08:33:09;;;;;;;21.40;12.80;;;;;;;-145.68;100.00;63218.00;10431001;28;20189;-76
2022/12/04 08:38:09;;;;;;;23.97;14.17;;;;;;;-145.68;100.00;63218.00;10414882;28;20212;-76
2022/12/04 08:43:10;;;;;;;23.90;13.90;;;;;;;-145.68;100.00;63218.00;10397085;28;20220;-76
2022/12/04 08:48:10;;;;;;;21.73;13.17;;;;;;;-145.68;100.00;63218.00;10413765;28;20189;-75
2022/12/04 08:53:10;;;;;;;22.47;13.07;;;;;;;-145.68;100.00;63218.00;10396405;28;20722;-76
2022/12/04 08:58:11;;;;;;;23.63;13.87;;;;;;;-145.68;100.00;63218.00;10396264;28;20318;-76
2022/12/04 09:03:13;;;;;;;21.60;13.87;;;;;;;-145.68;100.00;63218.00;10396003;28;20208;-77
2022/12/04 09:08:15;;;;;;;27.53;15.40;;;;;;;-145.68;100.00;63218.00;10396534;28;20193;-77
2022/12/04 09:13:15;;;;;;;23.20;15.20;;;;;;;-145.68;100.00;63218.00;10395981;28;20188;-75
2022/12/04 09:18:16;;;;;;;26.00;14.83;;;;;;;-145.68;100.00;63218.00;10394718;28;20192;-77
2022/12/04 09:23:16;;;;;;;23.40;14.07;;;;;;;-145.68;100.00;63218.00;10410820;28;20278;-76
2022/12/04 09:28:16;;;;;;;23.27;13.17;;;;;;;-145.68;100.00;63218.00;10372068;28;20199;-75
2022/12/04 09:33:17;;;;;;;23.17;14.27;;;;;;;-145.68;100.00;63218.00;10371961;28;20220;-76
2022/12/04 09:38:17;;;;;;;31.47;20.17;;;;;;;-145.68;100.00;63218.00;10371632;28;20802;-76
2022/12/04 09:43:31;;;;;;;30.37;17.10;;;;;;;-145.68;100.00;63218.00;10371662;28;20883;-76
2022/12/04 09:48:34;;;;;;;26.33;15.80;;;;;;;-145.68;100.00;63218.00;10354103;28;20281;-76
2022/12/04 09:53:44;;;;;;;25.00;15.13;;;;;;;-145.68;100.00;63218.00;10337802;28;20185;-76
2022/12/04 09:59:14;;;;;;;24.70;14.70;;;;;;;-145.68;100.00;63218.00;10353824;28;20193;-76
2022/12/04 10:04:15;;;;;;;25.10;16.13;;;;;;;-145.68;100.00;63218.00;10352977;28;20218;-76
2022/12/04 10:09:26;;;;;;;34.73;18.90;;;;;;;-145.68;100.00;63218.00;10353533;28;20246;-76
2022/12/04 10:14:56;;;;;;;23.73;13.00;;;;;;;-145.68;100.00;63218.00;10353006;28;20931;-76
2022/12/04 10:20:11;;;;;;;23.83;14.23;;;;;;;-145.68;100.00;63218.00;10339784;28;20205;-75
2022/12/04 10:25:17;;;;;;;22.07;13.83;;;;;;;-145.68;100.00;63218.00;10370419;28;20235;-75
2022/12/04 10:30:23;;;;;;;18.93;13.13;;;;;;;-145.68;100.00;63218.00;10392791;28;20245;-75
2022/12/04 10:35:28;;;;;;;31.67;18.37;;;;;;;-145.68;100.00;63218.00;10393294;28;20200;-76
2022/12/04 10:40:57;;;;;;;28.70;17.07;;;;;;;-145.68;100.00;63218.00;10393137;28;20645;-76
2022/12/04 10:45:57;;;;;;;24.33;15.10;;;;;;;-145.68;100.00;63218.00;10389166;28;20211;-75
2022/12/04 10:50:58;;;;;;;29.20;18.63;;;;;;;-145.68;100.00;63218.00;10409893;28;20191;-76
2022/12/04 10:56:10;;;;;;;25.63;15.27;;;;;;;-145.68;100.00;63218.00;10392234;28;20687;-75
2022/12/04 11:01:14;;;;;;;23.10;14.00;;;;;;;-145.68;100.00;63218.00;10392009;28;20227;-75
2022/12/04 11:06:14;;;;;;;24.27;14.20;;;;;;;-145.68;100.00;63218.00;10375371;28;20560;-75
2022/12/04 11:11:23;;;;;;;24.43;15.23;;;;;;;-145.68;100.00;63218.00;10391714;28;20195;-76
2022/12/04 11:16:32;;;;;;;25.73;16.57;;;;;;;-145.68;100.00;63218.00;10391263;28;20243;-75
2022/12/04 11:21:32;;;;;;;27.07;16.90;;;;;;;-145.68;100.00;63218.00;10391445;28;20251;-74
2022/12/04 11:26:36;;;;;;;28.00;16.80;;;;;;;-145.68;100.00;63218.00;10390858;28;20636;-75
2022/12/04 11:31:36;;;;;;;26.53;16.93;;;;;;;-145.68;100.00;63218.00;10391198;28;20193;-76
2022/12/04 11:36:39;;;;;;;26.17;15.70;;;;;;;-145.68;100.00;63218.00;10390708;28;20216;-76
2022/12/04 11:41:40;;;;;;;28.47;16.57;;;;;;;-145.68;100.00;63218.00;10389960;28;20217;-76
2022/12/04 11:46:51;;;;;;;33.00;18.63;;;;;;;-145.68;100.00;63218.00;10374755;28;20204;-76
2022/12/04 11:52:12;;;;;;;31.37;19.47;;;;;;;-145.68;100.00;63218.00;10408689;28;20715;-76
2022/12/04 11:57:23;;;;;;;30.17;18.63;;;;;;;-145.68;100.00;63218.00;10390742;28;20196;-75
2022/12/04 12:02:29;;;;;;;32.50;18.33;;;;;;;-145.68;100.00;63218.00;10390778;28;20228;-76
2022/12/04 12:07:55;;;;;;;34.10;19.87;;;;;;;-145.68;100.00;63218.00;10407933;28;20192;-75
2022/12/04 12:13:11;;;;;;;35.23;20.47;;;;;;;-145.68;100.00;63218.00;10390541;28;20199;-76
2022/12/04 12:18:26;;;;;;;34.80;20.20;;;;;;;-145.68;100.00;63218.00;10407908;28;20200;-76
2022/12/04 12:24:00;;;;;;;40.93;23.63;;;;;;;-145.68;100.00;63218.00;10389427;28;20227;-75
2022/12/04 12:29:13;;;;;;;35.63;20.47;;;;;;;-145.68;100.00;63218.00;10407311;28;20192;-75
2022/12/04 12:34:20;;;;;;;32.83;20.17;;;;;;;-145.68;100.00;63218.00;10389893;28;20225;-75
2022/12/04 12:39:25;;;;;;;34.73;20.20;;;;;;;-145.68;100.00;63218.00;10389704;28;20224;-75
2022/12/04 12:44:33;;;;;;;37.97;22.40;;;;;;;-145.68;100.00;63218.00;10389760;28;20216;-75
2022/12/04 12:49:51;;;;;;;38.40;22.93;;;;;;;-145.68;100.00;63218.00;10408968;28;20276;-76
2022/12/04 12:55:02;;;;;;;39.97;25.63;;;;;;;-145.68;100.00;63218.00;10396975;28;20219;-76
2022/12/04 13:00:14;;;;;;;40.33;23.67;;;;;;;-145.68;100.00;63218.00;10396614;28;20192;-75
2022/12/04 13:05:32;;;;;;;38.23;22.00;;;;;;;-145.68;100.00;63218.00;10396502;28;20208;-75
2022/12/04 13:10:38;;;;;;;41.57;24.33;;;;;;;-145.68;100.00;63218.00;10396121;28;20238;-76
2022/12/04 13:15:47;;;;;;;41.57;22.17;;;;;;;-145.68;100.00;63218.00;10396576;28;20188;-75
2022/12/04 13:20:54;;;;;;;38.67;21.43;;;;;;;-145.68;100.00;63218.00;10396173;28;20227;-75
2022/12/04 13:26:04;;;;;;;34.70;21.27;;;;;;;-145.68;100.00;63218.00;10395596;28;20290;-75
2022/12/04 13:31:31;;;;;;;37.50;22.30;;;;;;;-145.68;100.00;63218.00;10395483;28;20193;-75
2022/12/04 13:36:51;;;;;;;39.47;24.57;;;;;;;-145.68;100.00;63218.00;10395295;28;20258;-75
2022/12/04 13:41:57;;;;;;;41.73;25.40;;;;;;;-145.68;100.00;63218.00;10412900;28;20684;-75
2022/12/04 13:47:01;;;;;;;37.60;22.93;;;;;;;-145.68;100.00;63218.00;10394966;28;20784;-75
2022/12/04 13:52:04;;;;;;;37.23;21.60;;;;;;;-145.68;100.00;63218.00;10412130;28;20254;-75
2022/12/04 13:57:14;;;;;;;34.03;22.17;;;;;;;-145.68;100.00;63218.00;10412339;28;20189;-75
2022/12/04 14:02:27;;;;;;;38.50;22.70;;;;;;;-145.68;100.00;63218.00;10393903;28;20652;-75
2022/12/04 14:07:30;;;;;;;38.87;22.23;;;;;;;-145.68;100.00;63218.00;10411479;28;20220;-75
2022/12/04 14:12:35;;;;;;;43.27;25.30;;;;;;;-145.68;100.00;63218.00;10410781;28;20251;-76
2022/12/04 14:17:37;;;;;;;39.03;23.63;;;;;;;-145.68;100.00;63218.00;10393824;28;20665;-75
2022/12/04 14:22:41;;;;;;;43.83;28.57;;;;;;;-145.68;100.00;63218.00;10393483;28;20212;-75
2022/12/04 14:27:41;;;;;;;33.57;20.73;;;;;;;-145.68;100.00;63218.00;10411320;28;20294;-75
2022/12/04 14:32:42;;;;;;;33.43;20.63;;;;;;;-145.68;100.00;63218.00;10412012;28;20200;-75
2022/12/04 14:37:56;;;;;;;32.97;21.23;;;;;;;-145.68;100.00;63218.00;10393608;28;20220;-75
2022/12/04 14:42:57;;;;;;;43.57;23.13;;;;;;;-145.68;100.00;63218.00;10393594;28;20244;-75
2022/12/04 14:48:11;;;;;;;38.40;23.17;;;;;;;-145.68;100.00;63218.00;10377241;28;20727;-75
2022/12/04 14:53:27;;;;;;;34.70;20.13;;;;;;;-145.68;100.00;63218.00;10393659;28;20250;-75
2022/12/04 14:58:29;;;;;;;35.07;21.90;;;;;;;-145.68;100.00;63218.00;10410815;28;20579;-75
2022/12/04 15:03:34;;;;;;;39.03;23.50;;;;;;;-145.68;100.00;63218.00;10393079;28;20692;-75
2022/12/04 15:08:34;;;;;;;37.20;23.07;;;;;;;-145.68;100.00;63218.00;10392368;28;20193;-75
2022/12/04 15:13:36;;;;;;;38.27;23.90;;;;;;;-145.68;100.00;63218.00;10409386;28;20192;-75
2022/12/04 15:18:37;;;;;;;42.57;23.73;;;;;;;-145.68;100.00;63218.00;10410109;28;20196;-75
2022/12/04 15:23:40;;;;;;;35.07;22.07;;;;;;;-145.68;100.00;63218.00;10409699;28;20763;-75
2022/12/04 15:28:48;;;;;;;41.13;25.57;;;;;;;-145.68;100.00;63218.00;10410285;28;20212;-75
2022/12/04 15:33:51;;;;;;;38.37;24.27;;;;;;;-145.68;100.00;63218.00;10409474;28;20219;-75
2022/12/04 15:38:52;;;;;;;36.93;23.67;;;;;;;-145.68;100.00;63218.00;10409990;28;20585;-75
2022/12/04 15:43:52;;;;;;;36.03;23.50;;;;;;;-145.68;100.00;63218.00;10391506;28;20220;-75
2022/12/04 15:49:03;;;;;;;30.63;21.13;;;;;;;-145.68;100.00;63218.00;10404049;28;20246;-75
2022/12/04 15:54:04;;;;;;;34.93;20.80;;;;;;;-145.68;100.00;63218.00;10408323;28;20189;-75
2022/12/04 15:59:07;;;;;;;32.77;21.47;;;;;;;-145.68;100.00;63218.00;10407021;28;20250;-76
2022/12/04 16:04:20;;;;;;;32.60;20.53;;;;;;;-145.68;100.00;63218.00;10404411;28;20235;-75
2022/12/04 16:09:28;;;;;;;30.87;19.67;;;;;;;-145.68;100.00;63218.00;10405555;28;20219;-76
2022/12/04 16:14:28;;;;;;;27.97;18.27;;;;;;;-145.68;100.00;63218.00;10406326;28;20200;-76
2022/12/04 16:19:31;;;;;;;37.97;25.60;;;;;;;-145.68;100.00;63218.00;10430553;28;20195;-76
2022/12/04 16:24:32;;;;;;;30.80;20.50;;;;;;;-145.68;100.00;63218.00;10432143;28;20236;-75
2022/12/04 16:29:32;;;;;;;29.13;20.10;;;;;;;-145.68;100.00;63218.00;10456869;28;20947;-76
2022/12/04 16:34:33;;;;;;;31.20;19.43;;;;;;;-145.68;100.00;63218.00;10441025;28;20552;-74
2022/12/04 16:39:33;;;;;;;28.13;18.90;;;;;;;-145.68;100.00;63218.00;10432965;28;20294;-76
2022/12/04 16:44:35;;;;;;;26.80;16.80;;;;;;;-145.68;100.00;63218.00;10429958;28;20578;-76
2022/12/04 16:49:36;;;;;;;32.37;19.40;;;;;;;-145.68;100.00;63218.00;10446569;28;20619;-75
2022/12/04 16:54:37;;;;;;;28.83;20.30;;;;;;;-145.68;100.00;63218.00;10455348;28;20194;-74
2022/12/04 16:59:37;;;;;;;35.07;19.93;;;;;;;-145.68;100.00;63218.00;10455628;28;20192;-75
2022/12/04 17:04:38;;;;;;;32.03;20.87;;;;;;;-145.68;100.00;63218.00;10455990;28;20311;-74
2022/12/04 17:09:38;;;;;;;20.60;13.10;;;;;;;-145.68;100.00;63218.00;10454643;28;20218;-74
2022/12/04 17:14:40;;;;;;;30.10;19.27;;;;;;;-145.68;100.00;63218.00;10454183;28;20184;-74
2022/12/04 17:19:40;;;;;;;32.03;20.47;;;;;;;-145.68;100.00;63218.00;10454215;28;20275;-74
2022/12/04 17:24:40;;;;;;;29.73;19.53;;;;;;;-145.68;100.00;63218.00;10452973;28;20239;-74
2022/12/04 17:29:41;;;;;;;38.53;20.77;;;;;;;-145.68;100.00;63218.00;10453434;28;20196;-74
2022/12/04 17:34:41;;;;;;;28.73;19.73;;;;;;;-145.68;100.00;63218.00;10453084;28;20275;-74
2022/12/04 17:39:41;;;;;;;29.43;20.33;;;;;;;-145.68;100.00;63218.00;10449075;28;20214;-74
2022/12/04 17:44:42;;;;;;;25.60;16.20;;;;;;;-145.68;100.00;63218.00;10452139;28;20236;-72
2022/12/04 17:49:43;;;;;;;24.70;16.57;;;;;;;-145.68;100.00;63218.00;10453502;28;20518;-73
2022/12/04 17:54:44;;;;;;;31.67;19.03;;;;;;;-145.68;100.00;63218.00;10452471;28;20188;-74
2022/12/04 17:59:44;;;;;;;28.13;17.30;;;;;;;-145.68;100.00;63218.00;10452870;28;20238;-73
2022/12/04 18:04:45;;;;;;;24.50;15.30;;;;;;;-145.68;100.00;63218.00;10452186;28;20216;-75
2022/12/04 18:09:45;;;;;;;27.30;16.20;;;;;;;-145.68;100.00;63218.00;10434621;28;20276;-74
2022/12/04 18:14:45;;;;;;;27.07;18.57;;;;;;;-145.68;100.00;63218.00;10451653;28;20278;-74
2022/12/04 18:19:46;;;;;;;22.50;14.43;;;;;;;-145.68;100.00;63218.00;10452123;28;20678;-74
2022/12/04 18:24:47;;;;;;;26.37;14.90;;;;;;;-145.68;100.00;63218.00;10451073;28;20220;-73
2022/12/04 18:29:48;;;;;;;18.20;12.17;;;;;;;-145.68;100.00;63218.00;10433676;28;20184;-74
2022/12/04 18:34:48;;;;;;;15.70;9.97;;;;;;;-145.68;100.00;63218.00;10451157;28;20266;-76
2022/12/04 18:39:49;;;;;;;25.40;16.10;;;;;;;-145.68;100.00;63218.00;10451216;28;20269;-73
2022/12/04 18:44:50;;;;;;;22.53;13.70;;;;;;;-145.68;100.00;63218.00;10450630;28;20230;-74
2022/12/04 18:49:50;;;;;;;23.57;15.63;;;;;;;-145.68;100.00;63218.00;10450730;28;20188;-74
2022/12/04 18:54:51;;;;;;;24.43;15.27;;;;;;;-145.68;100.00;63218.00;10450427;28;20179;-74
2022/12/04 18:59:52;;;;;;;17.77;10.80;;;;;;;-145.68;100.00;63218.00;10450486;28;20192;-74
2022/12/04 19:04:52;;;;;;;21.57;14.63;;;;;;;-145.68;100.00;63218.00;10449670;28;20219;-75
2022/12/04 19:09:53;;;;;;;18.83;10.77;;;;;;;-145.68;100.00;63218.00;10449997;28;20282;-74
2022/12/04 19:14:53;;;;;;;20.70;12.20;;;;;;;-145.68;100.00;63218.00;10447731;28;20184;-75
2022/12/04 19:19:54;;;;;;;20.83;15.20;;;;;;;-145.68;100.00;63218.00;10448368;28;20181;-74
2022/12/04 19:24:54;;;;;;;21.13;13.13;;;;;;;-145.68;100.00;63218.00;10447189;28;20231;-74
2022/12/04 19:29:54;;;;;;;21.70;15.63;;;;;;;-145.68;100.00;63218.00;10448093;28;20187;-74
2022/12/04 19:34:55;;;;;;;24.70;17.20;;;;;;;-145.68;100.00;63218.00;10448202;28;20609;-74
2022/12/04 19:39:55;;;;;;;23.83;15.83;;;;;;;-145.68;100.00;63218.00;10447455;28;20207;-73
2022/12/04 19:44:56;;;;;;;20.40;14.17;;;;;;;-145.68;100.00;63218.00;10447650;28;20216;-73
2022/12/04 19:49:56;;;;;;;29.03;18.13;;;;;;;-145.68;100.00;63218.00;10447577;28;20222;-73
2022/12/04 19:54:56;;;;;;;19.80;13.17;;;;;;;-145.68;100.00;63218.00;10400611;28;20565;-73
2022/12/04 19:59:57;;;;;;;23.00;16.40;;;;;;;-145.68;100.00;63218.00;10443412;28;20231;-75
2022/12/04 20:04:57;;;;;;;23.07;15.93;;;;;;;-145.68;100.00;63218.00;10455731;28;20219;-73
2022/12/04 20:09:57;;;;;;;21.87;15.00;;;;;;;-145.68;100.00;63218.00;10453654;28;20188;-74
2022/12/04 20:14:58;;;;;;;24.70;17.83;;;;;;;-145.68;100.00;63218.00;10447098;28;20436;-74
2022/12/04 20:19:58;;;;;;;18.60;12.67;;;;;;;-145.68;100.00;63218.00;10431405;28;20678;-74
2022/12/04 20:24:58;;;;;;;23.03;15.67;;;;;;;-145.68;100.00;63218.00;10451121;28;20242;-73
2022/12/04 20:29:59;;;;;;;22.50;14.40;;;;;;;-145.68;100.00;63218.00;10455286;28;20250;-74
2022/12/04 20:34:59;;;;;;;24.70;15.90;;;;;;;-145.68;100.00;63218.00;10440708;28;20226;-74
2022/12/04 20:40:01;;;;;;;23.43;16.20;;;;;;;-145.68;100.00;63218.00;10429496;28;20259;-74
2022/12/04 20:45:01;;;;;;;17.47;8.83;;;;;;;-145.68;100.00;63218.00;10411248;28;20204;-74
2022/12/04 20:50:05;;;;;;;22.53;12.40;;;;;;;-145.68;100.00;63218.00;10414800;28;20184;-73
2022/12/04 20:55:07;;;;;;;25.67;17.57;;;;;;;-145.68;100.00;63218.00;10412401;28;20216;-74
2022/12/04 21:00:08;;;;;;;23.10;15.10;;;;;;;-145.68;100.00;63218.00;10412763;28;20204;-74
2022/12/04 21:05:08;;;;;;;22.63;15.63;;;;;;;-145.68;100.00;63218.00;10411855;28;20230;-74
2022/12/04 21:10:09;;;;;;;25.60;15.37;;;;;;;-145.68;100.00;63218.00;10412365;28;20534;-74
2022/12/04 21:20:29;;;;;;;22.37;14.70;;;;;;;-145.68;100.00;63218.00;10396973;28;20615;-73
2022/12/04 21:25:29;;;;;;;19.27;13.40;;;;;;;-145.68;100.00;63218.00;10371376;28;20233;-73
2022/12/04 21:30:30;;;;;;;15.80;11.57;;;;;;;-145.68;100.00;63218.00;10371509;28;20584;-73
2022/12/04 21:35:30;;;;;;;11.10;8.17;;;;;;;-145.68;100.00;63218.00;10370945;28;20189;-74
2022/12/04 21:40:32;;;;;;;14.03;9.00;;;;;;;-145.68;100.00;63218.00;10369587;28;20213;-74
2022/12/04 21:45:32;;;;;;;9.03;6.93;;;;;;;-145.68;100.00;63218.00;10350427;28;20193;-73
2022/12/04 21:50:33;;;;;;;8.03;5.73;;;;;;;-145.68;100.00;63218.00;10369494;28;20209;-74
2022/12/04 21:55:33;;;;;;;7.57;5.43;;;;;;;-145.68;100.00;63218.00;10353047;28;20673;-74
2022/12/04 22:00:34;;;;;;;8.27;5.83;;;;;;;-145.68;100.00;63218.00;10353384;28;20557;-74
2022/12/04 22:05:34;;;;;;;7.13;5.90;;;;;;;-145.68;100.00;63218.00;10369016;28;20185;-74
2022/12/04 22:10:45;;;;;;;7.03;5.23;;;;;;;-145.68;100.00;63218.00;10370146;28;20197;-74
2022/12/04 22:15:46;;;;;;;7.67;6.53;;;;;;;-145.68;100.00;63218.00;10369606;28;20711;-75
2022/12/04 22:20:47;;;;;;;9.30;6.73;;;;;;;-145.68;100.00;63218.00;10368958;28;20250;-73
2022/12/04 22:25:48;;;;;;;14.37;7.93;;;;;;;-145.68;100.00;63218.00;10391315;28;20232;-75
2022/12/04 22:30:48;;;;;;;12.70;8.30;;;;;;;-145.68;100.00;63218.00;10410587;28;20262;-74
2022/12/04 22:35:49;;;;;;;11.63;8.53;;;;;;;-145.68;100.00;63218.00;10409856;28;20189;-75
2022/12/04 22:40:49;;;;;;;15.50;10.83;;;;;;;-145.68;100.00;63218.00;10410017;28;20224;-74